Terminal Aerodrome Forecast
Issued by NWS

Home | Current Version | Previous Version | Text Only | Print | Product List | Glossary On
Versions: 1 2 3 4 5 6 7 8 9 10 11 12 13 14 15 16 17 18 19 20 21 22 23 24 25 26 27 28 29 30
000
FTUS44 KHGX 201840 AAA
TAFSGR
TAF AMD
KSGR 201840Z 2019/2118 17010KT P6SM VCTS SCT040CB BKN250
      TEMPO 2019/2020 VRB15G25KT -TSRA BKN040CB
     FM202300 17010KT P6SM FEW040 BKN100
     FM210300 VRB04KT P6SM SCT250
     FM211400 17008KT P6SM FEW015 SCT035
      AMD NOT SKED=

USA.gov is the U.S. government's official web portal to all federal, state and local government web resources and services.